createdAt,value
2017-08-26T00:00:49.036Z,19.38
2017-08-26T00:03:16.276Z,19.39
2017-08-26T00:05:43.796Z,19.38
2017-08-26T00:08:11.290Z,19.38
2017-08-26T00:10:38.529Z,19.38
2017-08-26T00:13:06.122Z,19.38
2017-08-26T00:15:33.318Z,19.38
2017-08-26T00:18:00.606Z,19.38
2017-08-26T00:20:27.791Z,19.38
2017-08-26T00:22:54.973Z,19.38
2017-08-26T00:25:22.153Z,19.38
2017-08-26T00:27:49.317Z,19.39
2017-08-26T00:30:16.679Z,19.38
2017-08-26T00:32:43.841Z,19.39
2017-08-26T00:35:11.264Z,19.39
2017-08-26T00:37:39.035Z,19.39
2017-08-26T00:40:06.692Z,19.38
2017-08-26T00:42:33.941Z,19.39
2017-08-26T00:45:01.124Z,19.38
2017-08-26T00:47:28.868Z,19.39
2017-08-26T00:49:56.509Z,19.38
2017-08-26T00:52:25.401Z,19.38
2017-08-26T00:54:52.591Z,19.39
2017-08-26T00:57:20.229Z,19.38
2017-08-26T00:59:47.412Z,19.38
2017-08-26T01:02:14.587Z,19.38
2017-08-26T01:04:42.293Z,19.39
2017-08-26T01:07:15.272Z,19.38
2017-08-26T01:09:42.452Z,19.39
2017-08-26T01:12:09.887Z,19.38
2017-08-26T01:14:37.069Z,19.39
2017-08-26T01:17:04.700Z,19.39
2017-08-26T01:19:31.873Z,19.38
2017-08-26T01:21:59.049Z,19.38
2017-08-26T01:24:26.217Z,19.39
2017-08-26T01:26:53.413Z,19.39
2017-08-26T01:29:20.960Z,19.39
2017-08-26T01:31:49.484Z,19.39
2017-08-26T01:34:17.793Z,19.38
2017-08-26T01:36:44.963Z,19.39
2017-08-26T01:39:12.137Z,19.38
2017-08-26T01:41:39.330Z,19.39
2017-08-26T01:44:06.830Z,19.39
2017-08-26T01:46:35.928Z,19.39
2017-08-26T01:49:03.276Z,19.38
2017-08-26T01:51:30.915Z,19.39
2017-08-26T01:53:58.198Z,19.39
2017-08-26T01:56:25.395Z,19.39
2017-08-26T01:58:52.801Z,19.39
2017-08-26T02:01:20.568Z,19.39
2017-08-26T02:03:47.737Z,19.38
2017-08-26T02:06:14.997Z,19.39
2017-08-26T02:08:42.514Z,19.39
2017-08-26T02:11:09.704Z,19.39
2017-08-26T02:13:36.928Z,19.39
2017-08-26T02:16:04.379Z,19.39
2017-08-26T02:18:31.907Z,19.40
2017-08-26T02:20:59.077Z,19.39
2017-08-26T02:23:26.245Z,19.39
2017-08-26T02:25:53.783Z,19.39
2017-08-26T02:28:20.956Z,19.39
2017-08-26T02:30:48.157Z,19.39
2017-08-26T02:33:15.325Z,19.39
2017-08-26T02:35:42.817Z,19.39
2017-08-26T02:38:10.273Z,19.39
2017-08-26T02:40:37.460Z,19.39
2017-08-26T02:43:05.405Z,19.39
2017-08-26T02:45:32.826Z,19.39
2017-08-26T02:48:00.410Z,19.39
2017-08-26T02:50:27.595Z,19.39
2017-08-26T02:52:54.764Z,19.39
2017-08-26T02:55:22.170Z,19.39
2017-08-26T02:57:49.618Z,19.39
2017-08-26T03:00:17.278Z,19.39
2017-08-26T03:02:44.532Z,19.39
2017-08-26T03:05:11.993Z,19.39
2017-08-26T03:07:39.450Z,19.40
2017-08-26T03:10:06.905Z,19.39
2017-08-26T03:12:34.367Z,19.39
2017-08-26T03:15:01.538Z,19.40
2017-08-26T03:17:29.025Z,19.39
2017-08-26T03:19:56.219Z,19.39
2017-08-26T03:22:23.634Z,19.39
2017-08-26T03:24:51.227Z,19.40
2017-08-26T03:27:18.815Z,19.40
2017-08-26T03:29:45.999Z,19.39
2017-08-26T03:32:13.502Z,19.39
2017-08-26T03:34:40.677Z,19.39
2017-08-26T03:37:07.859Z,19.40
2017-08-26T03:39:35.162Z,19.39
2017-08-26T03:42:02.341Z,19.40
2017-08-26T03:44:29.525Z,19.40
2017-08-26T03:46:57.225Z,19.40
2017-08-26T03:49:24.408Z,19.40
2017-08-26T03:51:51.833Z,19.39
2017-08-26T03:54:19.020Z,19.39
2017-08-26T03:56:46.447Z,19.40
2017-08-26T03:59:13.901Z,19.39
2017-08-26T04:01:41.079Z,19.39
2017-08-26T04:04:08.604Z,19.40
2017-08-26T04:06:35.953Z,19.39
2017-08-26T04:09:03.144Z,19.39
2017-08-26T04:11:30.321Z,19.39
2017-08-26T04:13:57.727Z,19.40
2017-08-26T04:16:25.176Z,19.40
2017-08-26T04:18:52.632Z,19.39
2017-08-26T04:21:20.279Z,19.39
2017-08-26T04:23:47.449Z,19.39
2017-08-26T04:26:14.886Z,19.40
2017-08-26T04:28:42.083Z,19.40
2017-08-26T04:31:09.283Z,19.40
2017-08-26T04:33:36.764Z,19.40
2017-08-26T04:36:04.221Z,19.40
2017-08-26T04:38:31.677Z,19.40
2017-08-26T04:40:59.125Z,19.40
2017-08-26T04:43:26.655Z,19.39
2017-08-26T04:45:53.844Z,19.40
2017-08-26T04:48:21.390Z,19.40
2017-08-26T04:50:48.575Z,19.40
2017-08-26T04:53:16.002Z,19.40
2017-08-26T04:55:43.178Z,19.40
2017-08-26T04:58:10.349Z,19.40
2017-08-26T05:00:37.630Z,19.40
2017-08-26T05:03:05.021Z,19.39
2017-08-26T05:05:32.197Z,19.40
2017-08-26T05:07:59.730Z,19.40
2017-08-26T05:10:26.911Z,19.40
2017-08-26T05:12:54.226Z,19.40
2017-08-26T05:15:21.606Z,19.40
2017-08-26T05:17:48.841Z,19.40
2017-08-26T05:20:16.013Z,19.41
2017-08-26T05:22:43.447Z,19.40
2017-08-26T05:25:10.624Z,19.40
2017-08-26T05:27:38.057Z,19.40
2017-08-26T05:30:05.235Z,19.40
2017-08-26T05:32:32.663Z,19.40
2017-08-26T05:35:00.119Z,19.40
2017-08-26T05:37:27.739Z,19.40
2017-08-26T05:39:55.036Z,19.40
2017-08-26T05:42:22.498Z,19.40
2017-08-26T05:44:50.016Z,19.40
2017-08-26T05:47:17.408Z,19.40
2017-08-26T05:49:44.865Z,19.40
2017-08-26T05:52:12.327Z,19.40
2017-08-26T05:54:39.501Z,19.40
2017-08-26T05:57:06.673Z,19.40
2017-08-26T05:59:33.859Z,19.39
2017-08-26T06:02:01.041Z,19.39
2017-08-26T06:04:28.433Z,19.40
2017-08-26T06:06:55.836Z,19.40
2017-08-26T06:09:23.489Z,19.40
2017-08-26T06:11:50.757Z,19.42
2017-08-26T06:14:17.943Z,19.45
2017-08-26T06:16:45.110Z,19.45
2017-08-26T06:19:12.821Z,19.47
2017-08-26T06:21:39.994Z,19.46
2017-08-26T06:24:07.181Z,19.47
2017-08-26T06:26:34.572Z,19.47
2017-08-26T06:29:01.737Z,19.48
2017-08-26T06:31:29.372Z,19.47
2017-08-26T06:33:56.949Z,19.46
2017-08-26T06:36:24.131Z,19.46
2017-08-26T06:38:51.547Z,19.46
2017-08-26T06:41:18.718Z,19.46
2017-08-26T06:43:46.358Z,19.48
2017-08-26T06:46:13.533Z,19.48
2017-08-26T06:48:40.701Z,19.49
2017-08-26T06:51:07.873Z,19.49
2017-08-26T06:53:35.059Z,19.51
2017-08-26T06:56:02.720Z,19.49
2017-08-26T06:58:29.980Z,19.48
2017-08-26T07:00:57.149Z,19.47
2017-08-26T07:03:24.331Z,19.46
2017-08-26T07:05:51.515Z,19.46
2017-08-26T07:08:18.891Z,19.46
2017-08-26T07:10:46.065Z,19.46
2017-08-26T07:13:13.595Z,19.45
2017-08-26T07:15:40.783Z,19.45
2017-08-26T07:18:07.970Z,19.44
2017-08-26T07:20:35.155Z,19.45
2017-08-26T07:23:02.344Z,19.45
2017-08-26T07:25:29.531Z,19.44
2017-08-26T07:27:56.716Z,19.45
2017-08-26T07:30:23.889Z,19.45
2017-08-26T07:32:51.304Z,19.45
2017-08-26T07:35:18.823Z,19.45
2017-08-26T07:37:45.994Z,19.44
2017-08-26T07:40:13.688Z,19.44
2017-08-26T07:42:41.137Z,19.45
2017-08-26T07:45:08.329Z,19.44
2017-08-26T07:47:35.505Z,19.44
2017-08-26T07:50:02.688Z,19.44
2017-08-26T07:52:30.118Z,19.44
2017-08-26T07:54:57.307Z,19.45
2017-08-26T07:57:24.498Z,19.44
2017-08-26T07:59:51.798Z,19.45
2017-08-26T08:02:18.985Z,19.44
2017-08-26T08:04:46.482Z,19.44
2017-08-26T08:07:13.822Z,19.44
2017-08-26T08:09:41.321Z,19.44
2017-08-26T08:12:08.955Z,19.45
2017-08-26T08:14:36.550Z,19.44
2017-08-26T08:17:03.736Z,19.44
2017-08-26T08:19:30.951Z,19.44
2017-08-26T08:21:58.120Z,19.44
2017-08-26T08:24:25.300Z,19.45
2017-08-26T08:26:52.600Z,19.43
2017-08-26T08:29:20.070Z,19.44
2017-08-26T08:31:47.244Z,19.44
2017-08-26T08:34:14.770Z,19.44
2017-08-26T08:36:42.124Z,19.44
2017-08-26T08:39:09.574Z,19.44
2017-08-26T08:41:36.760Z,19.44
2017-08-26T08:44:03.925Z,19.44
2017-08-26T08:46:31.089Z,19.43
2017-08-26T08:48:58.668Z,19.44
2017-08-26T08:51:25.838Z,19.44
2017-08-26T08:53:53.277Z,19.44
2017-08-26T08:56:20.553Z,19.45
2017-08-26T08:58:48.008Z,19.49
2017-08-26T09:01:15.458Z,19.50
2017-08-26T09:03:42.637Z,19.54
2017-08-26T09:06:10.290Z,19.54
2017-08-26T09:08:37.534Z,19.52
2017-08-26T09:11:04.701Z,19.51
2017-08-26T09:13:32.129Z,19.50
2017-08-26T09:15:59.312Z,19.49
2017-08-26T09:18:26.744Z,19.49
2017-08-26T09:20:54.201Z,19.48
2017-08-26T09:23:21.786Z,19.48
2017-08-26T09:25:49.117Z,19.47
2017-08-26T09:28:16.652Z,19.48
2017-08-26T09:30:44.047Z,19.47
2017-08-26T09:33:11.498Z,19.47
2017-08-26T09:35:39.173Z,19.47
2017-08-26T09:38:06.405Z,19.47
2017-08-26T09:40:33.861Z,19.47
2017-08-26T09:43:01.315Z,19.47
2017-08-26T09:45:28.777Z,19.47
2017-08-26T09:47:56.238Z,19.46
2017-08-26T09:50:23.425Z,19.46
2017-08-26T09:52:51.153Z,19.47
2017-08-26T09:55:18.665Z,19.47
2017-08-26T09:57:46.181Z,19.47
2017-08-26T10:00:13.697Z,19.46
2017-08-26T10:02:40.975Z,19.47
2017-08-26T10:05:08.153Z,19.47
2017-08-26T10:07:35.581Z,19.46
2017-08-26T10:10:02.762Z,19.46
2017-08-26T10:12:30.195Z,19.46
2017-08-26T10:14:57.366Z,19.47
2017-08-26T10:17:24.802Z,19.46
2017-08-26T10:19:52.252Z,19.46
2017-08-26T10:22:19.426Z,19.45
2017-08-26T10:24:46.679Z,19.46
2017-08-26T10:27:14.012Z,19.46
2017-08-26T10:29:41.529Z,19.46
2017-08-26T10:32:08.917Z,19.46
2017-08-26T10:34:36.381Z,19.46
2017-08-26T10:37:03.829Z,19.46
2017-08-26T10:39:31.036Z,19.46
2017-08-26T10:41:58.245Z,19.46
2017-08-26T10:44:25.459Z,19.46
2017-08-26T10:46:52.927Z,19.46
2017-08-26T10:49:20.204Z,19.46
2017-08-26T10:51:47.423Z,19.45
2017-08-26T10:54:14.597Z,19.46
2017-08-26T10:56:41.962Z,19.46
2017-08-26T10:59:09.489Z,19.47
2017-08-26T11:01:36.672Z,19.48
2017-08-26T11:04:04.224Z,19.48
2017-08-26T11:06:31.397Z,19.48
2017-08-26T11:08:58.574Z,19.49
2017-08-26T11:11:25.742Z,19.48
2017-08-26T11:13:53.238Z,19.48
2017-08-26T11:16:20.427Z,19.47
2017-08-26T11:18:47.615Z,19.47
2017-08-26T11:21:15.001Z,19.47
2017-08-26T11:23:42.456Z,19.47
2017-08-26T11:26:09.910Z,19.47
2017-08-26T11:28:37.096Z,19.47
2017-08-26T11:31:04.468Z,19.48
2017-08-26T11:33:31.972Z,19.48
2017-08-26T11:35:59.439Z,19.48
2017-08-26T11:38:26.991Z,19.48
2017-08-26T11:40:54.232Z,19.48
2017-08-26T11:43:21.419Z,19.47
2017-08-26T11:45:48.718Z,19.47
2017-08-26T11:48:16.104Z,19.48
2017-08-26T11:50:43.282Z,19.48
2017-08-26T11:53:10.718Z,19.47
2017-08-26T11:55:37.889Z,19.47
2017-08-26T11:58:05.078Z,19.48
2017-08-26T12:00:32.784Z,19.48
2017-08-26T12:03:00.290Z,19.48
2017-08-26T12:05:27.490Z,19.47
2017-08-26T12:07:54.681Z,19.47
2017-08-26T12:10:21.990Z,19.47
2017-08-26T12:12:49.495Z,19.47
2017-08-26T12:15:16.976Z,19.47
2017-08-26T12:17:44.387Z,19.47
2017-08-26T12:20:11.913Z,19.47
2017-08-26T12:22:39.598Z,19.49
2017-08-26T12:25:07.048Z,19.52
2017-08-26T12:27:34.501Z,19.57
2017-08-26T12:30:02.056Z,19.58
2017-08-26T12:32:29.229Z,19.60
2017-08-26T12:34:56.641Z,19.60
2017-08-26T12:37:25.177Z,19.61
2017-08-26T12:39:52.506Z,19.62
2017-08-26T12:42:19.852Z,19.62
2017-08-26T12:44:47.622Z,19.62
2017-08-26T12:47:14.793Z,19.61
2017-08-26T12:49:45.656Z,19.61
2017-08-26T12:52:15.374Z,19.61
2017-08-26T12:54:45.718Z,19.62
2017-08-26T12:57:13.236Z,19.63
2017-08-26T12:59:40.487Z,19.63
2017-08-26T13:02:08.006Z,19.63
2017-08-26T13:04:35.189Z,19.65
2017-08-26T13:07:02.374Z,19.67
2017-08-26T13:09:29.875Z,19.67
2017-08-26T13:11:57.951Z,19.68
2017-08-26T13:14:25.742Z,19.69
2017-08-26T13:16:53.261Z,19.69
2017-08-26T13:19:20.829Z,19.68
2017-08-26T13:21:48.397Z,19.68
2017-08-26T13:24:15.914Z,19.70
2017-08-26T13:26:43.137Z,19.73
2017-08-26T13:29:10.453Z,19.74
2017-08-26T13:31:37.634Z,19.76
2017-08-26T13:34:05.070Z,19.77
2017-08-26T13:36:32.237Z,19.78
2017-08-26T13:38:59.425Z,19.79
2017-08-26T13:41:27.259Z,19.78
2017-08-26T13:43:54.487Z,19.78
2017-08-26T13:46:21.920Z,19.78
2017-08-26T13:48:49.158Z,19.76
2017-08-26T13:51:16.957Z,19.76
2017-08-26T13:53:44.417Z,19.76
2017-08-26T13:56:11.629Z,19.76
2017-08-26T13:58:38.809Z,19.75
2017-08-26T14:01:06.564Z,19.75
2017-08-26T14:03:34.248Z,19.75
2017-08-26T14:06:01.704Z,19.75
2017-08-26T14:08:29.225Z,19.75
2017-08-26T14:10:56.405Z,19.78
2017-08-26T14:13:23.818Z,19.80
2017-08-26T14:15:51.328Z,19.81
2017-08-26T14:18:18.516Z,19.83
2017-08-26T14:20:45.701Z,19.85
2017-08-26T14:23:13.019Z,19.85
2017-08-26T14:25:40.456Z,19.84
2017-08-26T14:28:07.891Z,19.84
2017-08-26T14:30:35.067Z,19.84
2017-08-26T14:33:02.504Z,19.85
2017-08-26T14:35:29.961Z,19.85
2017-08-26T14:37:57.132Z,19.85
2017-08-26T14:40:24.567Z,19.86
2017-08-26T14:42:52.014Z,19.86
2017-08-26T14:45:19.512Z,19.87
2017-08-26T14:47:46.693Z,19.87
2017-08-26T14:50:14.088Z,19.87
2017-08-26T14:52:41.612Z,19.88
2017-08-26T14:55:09.091Z,19.88
2017-08-26T14:57:36.280Z,19.88
2017-08-26T15:00:03.613Z,19.89
2017-08-26T15:02:30.785Z,19.88
2017-08-26T15:04:57.959Z,19.89
2017-08-26T15:07:25.133Z,19.90
2017-08-26T15:09:52.610Z,19.90
2017-08-26T15:12:20.052Z,19.90
2017-08-26T15:14:48.004Z,19.91
2017-08-26T15:17:15.237Z,19.90
2017-08-26T15:19:42.409Z,19.90
2017-08-26T15:22:09.806Z,19.88
2017-08-26T15:24:36.996Z,19.85
2017-08-26T15:27:04.412Z,19.84
2017-08-26T15:29:31.596Z,19.83
2017-08-26T15:31:59.020Z,19.83
2017-08-26T15:34:26.684Z,19.81
2017-08-26T15:36:53.942Z,19.80
2017-08-26T15:39:21.396Z,19.80
2017-08-26T15:41:48.849Z,19.80
2017-08-26T15:44:16.017Z,19.79
2017-08-26T15:46:43.487Z,19.79
2017-08-26T15:49:10.915Z,19.78
2017-08-26T15:51:38.382Z,19.76
2017-08-26T15:54:05.621Z,19.77
2017-08-26T15:56:32.793Z,19.76
2017-08-26T15:58:59.973Z,19.74
2017-08-26T16:01:27.145Z,19.75
2017-08-26T16:03:54.437Z,19.74
2017-08-26T16:06:21.623Z,19.73
2017-08-26T16:08:49.037Z,19.74
2017-08-26T16:11:16.497Z,19.73
2017-08-26T16:13:43.883Z,19.72
2017-08-26T16:16:11.101Z,19.72
2017-08-26T16:18:38.621Z,19.72
2017-08-26T16:21:06.014Z,19.72
2017-08-26T16:23:33.656Z,19.72
2017-08-26T16:26:00.844Z,19.71
2017-08-26T16:28:28.036Z,19.72
2017-08-26T16:30:55.536Z,19.71
2017-08-26T16:33:23.050Z,19.71
2017-08-26T16:35:50.222Z,19.71
2017-08-26T16:38:17.605Z,19.71
2017-08-26T16:40:45.125Z,19.70
2017-08-26T16:43:12.300Z,19.70
2017-08-26T16:45:39.478Z,19.70
2017-08-26T16:48:06.832Z,19.69
2017-08-26T16:50:34.547Z,19.69
2017-08-26T16:53:02.351Z,19.70
2017-08-26T16:55:29.529Z,19.69
2017-08-26T16:57:56.878Z,19.68
2017-08-26T17:00:24.049Z,19.68
2017-08-26T17:02:51.236Z,19.68
2017-08-26T17:05:18.852Z,19.68
2017-08-26T17:07:46.038Z,19.68
2017-08-26T17:10:13.219Z,19.67
2017-08-26T17:12:40.465Z,19.67
2017-08-26T17:15:08.297Z,19.68
2017-08-26T17:17:35.789Z,19.68
2017-08-26T17:20:03.356Z,19.67
2017-08-26T17:22:30.606Z,19.67
2017-08-26T17:24:57.782Z,19.67
2017-08-26T17:27:24.949Z,19.68
2017-08-26T17:29:52.139Z,19.67
2017-08-26T17:32:19.314Z,19.66
2017-08-26T17:34:46.666Z,19.67
2017-08-26T17:37:14.300Z,19.66
2017-08-26T17:39:41.572Z,19.66
2017-08-26T17:42:09.040Z,19.66
2017-08-26T17:44:36.205Z,19.66
2017-08-26T17:47:03.796Z,19.66
2017-08-26T17:49:30.968Z,19.66
2017-08-26T17:51:58.246Z,19.66
2017-08-26T17:54:25.500Z,19.66
2017-08-26T17:56:52.839Z,19.65
2017-08-26T17:59:20.031Z,19.66
2017-08-26T18:01:47.575Z,19.65
2017-08-26T18:04:14.755Z,19.65
2017-08-26T18:06:41.935Z,19.65
2017-08-26T18:09:09.098Z,19.65
2017-08-26T18:11:36.572Z,19.65
2017-08-26T18:14:03.824Z,19.65
2017-08-26T18:16:31.294Z,19.64
2017-08-26T18:18:58.476Z,19.65
2017-08-26T18:21:25.888Z,19.64
2017-08-26T18:23:53.054Z,19.65
2017-08-26T18:26:20.700Z,19.64
2017-08-26T18:28:47.953Z,19.64
2017-08-26T18:31:15.723Z,19.65
2017-08-26T18:33:42.968Z,19.64
2017-08-26T18:36:10.340Z,19.64
2017-08-26T18:38:37.782Z,19.64
2017-08-26T18:41:05.240Z,19.64
2017-08-26T18:43:32.745Z,19.65
2017-08-26T18:45:59.924Z,19.64
2017-08-26T18:48:27.111Z,19.64
2017-08-26T18:50:54.454Z,19.64
2017-08-26T18:53:21.963Z,19.64
2017-08-26T18:55:49.480Z,19.64
2017-08-26T18:58:16.998Z,19.64
2017-08-26T19:00:44.698Z,19.64
2017-08-26T19:03:11.876Z,19.64
2017-08-26T19:05:39.377Z,19.64
2017-08-26T19:08:06.653Z,19.64
2017-08-26T19:10:34.109Z,19.64
2017-08-26T19:13:01.376Z,19.64
2017-08-26T19:15:28.723Z,19.64
2017-08-26T19:17:56.361Z,19.64
2017-08-26T19:20:23.947Z,19.64
2017-08-26T19:22:51.157Z,19.64
2017-08-26T19:25:18.544Z,19.64
2017-08-26T19:27:45.881Z,19.63
2017-08-26T19:30:13.469Z,19.64
2017-08-26T19:32:40.638Z,19.64
2017-08-26T19:35:08.061Z,19.64
2017-08-26T19:37:35.234Z,19.64
2017-08-26T19:40:02.570Z,19.64
2017-08-26T19:42:29.738Z,19.64
2017-08-26T19:44:56.980Z,19.63
2017-08-26T19:47:24.622Z,19.64
2017-08-26T19:49:51.894Z,19.63
2017-08-26T19:52:19.061Z,19.63
2017-08-26T19:54:46.672Z,19.63
2017-08-26T19:57:14.260Z,19.63
2017-08-26T19:59:41.722Z,19.64
2017-08-26T20:02:08.885Z,19.63
2017-08-26T20:04:36.394Z,19.63
2017-08-26T20:07:03.557Z,19.64
2017-08-26T20:09:31.058Z,19.64
2017-08-26T20:11:58.393Z,19.64
2017-08-26T20:14:25.849Z,19.63
2017-08-26T20:16:53.622Z,19.62
2017-08-26T20:19:21.068Z,19.63
2017-08-26T20:21:48.246Z,19.63
2017-08-26T20:24:15.677Z,19.63
2017-08-26T20:26:42.841Z,19.63
2017-08-26T20:29:10.393Z,19.63
2017-08-26T20:31:37.936Z,19.63
2017-08-26T20:34:05.122Z,19.63
2017-08-26T20:36:32.331Z,19.63
2017-08-26T20:38:59.963Z,19.63
2017-08-26T20:41:27.265Z,19.63
2017-08-26T20:43:54.797Z,19.63
2017-08-26T20:46:22.138Z,19.63
2017-08-26T20:48:49.317Z,19.63
2017-08-26T20:51:17.098Z,19.63
2017-08-26T20:53:44.742Z,19.63
2017-08-26T20:56:12.035Z,19.63
2017-08-26T20:58:39.527Z,19.63
2017-08-26T21:01:06.727Z,19.63
2017-08-26T21:03:33.940Z,19.63
2017-08-26T21:06:01.153Z,19.63
2017-08-26T21:08:28.546Z,19.63
2017-08-26T21:10:56.140Z,19.63
2017-08-26T21:13:23.314Z,19.63
2017-08-26T21:15:50.745Z,19.62
2017-08-26T21:18:17.923Z,19.62
2017-08-26T21:20:45.098Z,19.62
2017-08-26T21:23:12.814Z,19.63
2017-08-26T21:25:39.986Z,19.62
2017-08-26T21:28:07.535Z,19.62
2017-08-26T21:30:35.051Z,19.63
2017-08-26T21:33:02.329Z,19.63
2017-08-26T21:35:29.525Z,19.63
2017-08-26T21:37:57.030Z,19.63
2017-08-26T21:40:24.272Z,19.62
2017-08-26T21:42:51.857Z,19.62
2017-08-26T21:45:19.620Z,19.62
2017-08-26T21:47:46.797Z,19.62
2017-08-26T21:50:14.227Z,19.63
2017-08-26T21:52:41.407Z,19.63
2017-08-26T21:55:08.829Z,19.63
2017-08-26T21:57:36.343Z,19.62
2017-08-26T22:00:03.744Z,19.62
2017-08-26T22:02:31.378Z,19.62
2017-08-26T22:04:58.620Z,19.63
2017-08-26T22:07:26.425Z,19.63
2017-08-26T22:09:53.881Z,19.63
2017-08-26T22:12:21.059Z,19.63
2017-08-26T22:14:48.690Z,19.63
2017-08-26T22:17:15.950Z,19.62
2017-08-26T22:19:43.401Z,19.63
2017-08-26T22:22:10.583Z,19.62
2017-08-26T22:24:38.109Z,19.64
2017-08-26T22:27:05.296Z,19.62
2017-08-26T22:29:32.820Z,19.63
2017-08-26T22:32:00.385Z,19.62
2017-08-26T22:34:27.845Z,19.62
2017-08-26T22:36:56.122Z,19.62
2017-08-26T22:39:23.293Z,19.63
2017-08-26T22:41:50.475Z,19.63
2017-08-26T22:44:18.749Z,19.63
2017-08-26T22:46:47.479Z,19.62
2017-08-26T22:49:16.404Z,19.63
2017-08-26T22:51:45.036Z,19.63
2017-08-26T22:54:14.046Z,19.63
2017-08-26T22:56:42.781Z,19.62
2017-08-26T22:59:10.825Z,19.62
2017-08-26T23:01:38.242Z,19.62
2017-08-26T23:04:05.812Z,19.63
2017-08-26T23:06:33.390Z,19.62
2017-08-26T23:09:01.507Z,19.63
2017-08-26T23:11:31.364Z,19.62
2017-08-26T23:14:01.110Z,19.63
2017-08-26T23:16:30.523Z,19.62
2017-08-26T23:18:59.947Z,19.62
2017-08-26T23:21:27.457Z,19.62
2017-08-26T23:23:55.098Z,19.62
2017-08-26T23:26:23.060Z,19.62
2017-08-26T23:28:50.834Z,19.63
2017-08-26T23:31:18.132Z,19.63
2017-08-26T23:33:45.669Z,19.63
2017-08-26T23:36:13.186Z,19.62
2017-08-26T23:38:40.459Z,19.63
2017-08-26T23:41:07.996Z,19.63
2017-08-26T23:43:35.488Z,19.63
2017-08-26T23:46:03.308Z,19.62
2017-08-26T23:48:30.602Z,19.62
2017-08-26T23:50:57.793Z,19.62
2017-08-26T23:53:25.207Z,19.63
2017-08-26T23:55:53.415Z,19.63
2017-08-26T23:58:20.692Z,19.63
